Terminal Aerodrome Forecast
Issued by NWS

Home | Current Version | Previous Version | Graphics & Text | Print | Product List | Glossary On
Versions: 1 2 3 4 5 6 7 8 9 10 11 12 13 14 15 16 17 18 19 20 21 22 23 24 25 26 27
121
FTUS43 KLOT 211132
TAFDPA
TAF
KDPA 211132Z 2112/2212 05007KT 3SM -SHRA BR VCTS FEW005CB OVC007
      TEMPO 2112/2114 1 1/2SM -TSRA
     FM211500 09010KT 6SM -SHRA BR BKN008 OVC015
     FM212100 07012KT 6SM BR VCSH SCT010 OVC015
     FM220200 07008KT 6SM BR BKN008
     FM220600 31005KT 2SM BR SCT003 OVC006=

USA.gov is the U.S. government's official web portal to all federal, state and local government web resources and services.